createdAt,value
2018-06-17T04:10:19.736Z,65
2018-06-17T04:10:45.092Z,65
2018-06-17T04:11:10.536Z,65
2018-06-17T04:11:36.025Z,65
2018-06-17T04:12:01.497Z,65
2018-06-17T04:12:27.008Z,70
2018-06-17T04:12:52.498Z,70
2018-06-17T04:13:17.949Z,70
2018-06-17T04:13:43.412Z,70
2018-06-17T04:14:08.902Z,70
2018-06-17T04:14:34.363Z,70
2018-06-17T04:14:59.852Z,75
2018-06-17T04:15:25.344Z,80
2018-06-17T04:15:50.865Z,85
2018-06-17T04:16:16.261Z,85
2018-06-17T04:16:41.762Z,90
2018-06-17T04:17:07.298Z,95
2018-06-17T04:17:32.743Z,95
2018-06-17T04:17:58.247Z,95
2018-06-17T04:18:23.710Z,95
2018-06-17T04:18:49.187Z,95
2018-06-17T04:19:14.642Z,95
2018-06-17T04:19:40.177Z,95
2018-06-17T04:20:05.675Z,95
2018-06-17T04:20:31.131Z,95
2018-06-17T04:20:56.589Z,95
2018-06-17T04:21:22.012Z,95
2018-06-17T04:21:47.535Z,95
2018-06-17T04:22:13.036Z,95
2018-06-17T04:22:38.462Z,100
2018-06-17T04:23:03.990Z,100
2018-06-17T04:23:29.427Z,100
2018-06-17T04:23:54.912Z,105
2018-06-17T04:24:20.401Z,105
2018-06-17T04:24:45.880Z,105
2018-06-17T04:25:11.357Z,110
2018-06-17T04:25:36.864Z,115
2018-06-17T04:26:02.309Z,115
2018-06-17T04:26:27.763Z,120
2018-06-17T04:26:53.293Z,125
2018-06-17T04:27:18.809Z,125
2018-06-17T04:27:44.218Z,125
2018-06-17T04:28:09.757Z,125
2018-06-17T04:28:35.264Z,130
2018-06-17T04:29:00.684Z,130
2018-06-17T04:29:26.197Z,130
2018-06-17T04:29:51.702Z,130
2018-06-17T04:30:17.209Z,130
2018-06-17T04:30:42.649Z,130
2018-06-17T04:31:08.116Z,125
2018-06-17T04:31:33.667Z,125
2018-06-17T04:31:59.069Z,125
2018-06-17T04:32:24.647Z,125
2018-06-17T04:32:50.124Z,120
2018-06-17T04:33:15.716Z,115
2018-06-17T04:33:41.193Z,120
2018-06-17T04:34:06.612Z,120
2018-06-17T04:34:32.116Z,120
2018-06-17T04:34:57.538Z,125
2018-06-17T04:35:23.032Z,125
2018-06-17T04:35:48.565Z,120
2018-06-17T04:36:14.031Z,110
2018-06-17T04:36:39.536Z,110
2018-06-17T04:37:04.959Z,105
2018-06-17T04:37:30.424Z,105
2018-06-17T04:37:55.923Z,100
2018-06-17T04:38:21.442Z,100
2018-06-17T04:38:46.926Z,100
2018-06-17T04:39:12.384Z,100
2018-06-17T04:39:37.883Z,95
2018-06-17T04:40:03.341Z,95
2018-06-17T04:40:28.779Z,95
2018-06-17T04:40:54.250Z,100
2018-06-17T04:41:19.748Z,100
2018-06-17T04:41:45.240Z,110
2018-06-17T04:42:10.760Z,105
2018-06-17T04:42:36.190Z,110
2018-06-17T04:43:01.662Z,110
2018-06-17T04:43:27.089Z,115
2018-06-17T04:43:52.579Z,120
2018-06-17T04:44:18.036Z,120
2018-06-17T04:44:43.553Z,115
2018-06-17T04:45:08.969Z,115
2018-06-17T04:45:34.492Z,110
2018-06-17T04:45:59.907Z,105
2018-06-17T04:46:25.380Z,100
2018-06-17T04:46:50.893Z,100
2018-06-17T04:47:16.307Z,100
2018-06-17T04:47:41.791Z,100
2018-06-17T04:48:07.293Z,100
2018-06-17T04:48:32.766Z,100
2018-06-17T04:48:58.239Z,100
2018-06-17T04:49:23.691Z,125
2018-06-17T04:49:49.179Z,110
2018-06-17T04:50:14.637Z,120
2018-06-17T04:50:40.079Z,125
2018-06-17T04:51:05.543Z,130
2018-06-17T04:51:31.024Z,130
2018-06-17T04:51:56.564Z,125
2018-06-17T04:52:21.976Z,110
2018-06-17T04:52:47.566Z,105
2018-06-17T04:53:13.066Z,105
2018-06-17T04:53:38.574Z,100
2018-06-17T04:54:04.023Z,130
2018-06-17T04:54:29.485Z,125
2018-06-17T04:54:55.041Z,135
2018-06-17T04:55:20.498Z,115
2018-06-17T04:55:45.955Z,100
2018-06-17T04:56:11.438Z,90
2018-06-17T04:56:36.905Z,90
2018-06-17T04:57:02.336Z,90
2018-06-17T04:57:27.858Z,90
2018-06-17T04:57:53.300Z,90
2018-06-17T04:58:18.820Z,95
2018-06-17T04:58:44.322Z,120
2018-06-17T04:59:09.773Z,140
2018-06-17T04:59:35.315Z,145
2018-06-17T05:00:00.890Z,140
2018-06-17T05:00:26.355Z,145
2018-06-17T05:00:51.792Z,145
2018-06-17T05:01:17.252Z,145
2018-06-17T05:01:42.897Z,145
2018-06-17T05:02:08.198Z,155
2018-06-17T05:02:33.793Z,155
2018-06-17T05:02:59.264Z,160
2018-06-17T05:03:24.706Z,165
2018-06-17T05:03:50.204Z,170
2018-06-17T05:04:15.738Z,170
2018-06-17T05:04:41.207Z,175
2018-06-17T05:05:06.660Z,165
2018-06-17T05:05:32.148Z,140
2018-06-17T05:05:57.627Z,135
2018-06-17T05:06:23.160Z,115
2018-06-17T05:06:48.614Z,140
2018-06-17T05:07:14.078Z,150
2018-06-17T05:07:39.516Z,110
2018-06-17T05:08:05.074Z,105
2018-06-17T05:08:30.610Z,140
2018-06-17T05:08:56.069Z,110
2018-06-17T05:09:21.563Z,120
2018-06-17T05:09:47.093Z,155
2018-06-17T05:10:12.584Z,160
2018-06-17T05:10:38.054Z,160
2018-06-17T05:11:03.569Z,160
2018-06-17T05:11:29.013Z,160
2018-06-17T05:11:54.427Z,160
2018-06-17T05:12:19.928Z,160
2018-06-17T05:12:45.422Z,160
2018-06-17T05:13:10.853Z,160
2018-06-17T05:13:36.335Z,160
2018-06-17T05:14:01.858Z,160
2018-06-17T05:14:27.328Z,160
2018-06-17T05:14:52.799Z,205
2018-06-17T05:15:18.290Z,210
2018-06-17T05:15:43.737Z,210
2018-06-17T05:16:09.238Z,210
2018-06-17T05:16:34.734Z,210
2018-06-17T05:17:00.211Z,210
2018-06-17T05:17:25.706Z,215
2018-06-17T05:17:51.204Z,215
2018-06-17T05:19:10.113Z,215
2018-06-17T05:19:35.637Z,215
2018-06-17T05:20:01.149Z,215
2018-06-17T05:20:26.643Z,215
2018-06-17T05:20:52.143Z,215
2018-06-17T05:21:17.641Z,215
2018-06-17T05:21:43.183Z,220
2018-06-17T05:22:08.703Z,220
2018-06-17T05:22:34.219Z,220
2018-06-17T05:22:59.685Z,220
2018-06-17T05:23:25.242Z,220
2018-06-17T05:23:50.734Z,225
2018-06-17T05:24:16.237Z,225
2018-06-17T05:24:41.734Z,225
2018-06-17T05:25:07.218Z,230
2018-06-17T05:25:32.727Z,235
2018-06-17T05:25:58.199Z,230
2018-06-17T05:26:23.912Z,230
2018-06-17T05:27:38.567Z,230
2018-06-17T05:28:04.065Z,230
2018-06-17T05:28:29.558Z,230
2018-06-17T05:28:55.075Z,230
2018-06-17T05:29:20.550Z,230
2018-06-17T05:29:46.207Z,230
2018-06-17T05:30:11.698Z,230
2018-06-17T05:30:37.143Z,230
2018-06-17T05:31:02.659Z,230
2018-06-17T05:31:28.157Z,230
2018-06-17T05:31:53.652Z,230
2018-06-17T05:32:19.150Z,230
2018-06-17T05:32:44.651Z,230
2018-06-17T05:33:10.121Z,230
2018-06-17T05:33:35.648Z,230
2018-06-17T05:34:01.171Z,230
2018-06-17T05:34:26.687Z,230
2018-06-17T05:34:52.182Z,230
2018-06-17T05:36:11.172Z,225
2018-06-17T05:36:36.655Z,220
2018-06-17T05:37:02.155Z,220
2018-06-17T05:37:27.651Z,220
2018-06-17T05:37:53.160Z,210
2018-06-17T05:38:18.655Z,210
2018-06-17T05:38:44.183Z,215
2018-06-17T05:39:09.685Z,220
2018-06-17T05:39:35.163Z,225
2018-06-17T05:40:00.698Z,220
2018-06-17T05:40:26.161Z,230
2018-06-17T05:40:51.676Z,230
2018-06-17T05:41:17.160Z,235
2018-06-17T05:41:42.660Z,235
2018-06-17T05:42:08.164Z,235
2018-06-17T05:42:33.730Z,240
2018-06-17T05:42:59.345Z,240
2018-06-17T05:43:25.996Z,240
2018-06-17T05:43:52.434Z,240
2018-06-17T05:44:19.230Z,240
2018-06-17T05:44:44.648Z,240
2018-06-17T05:45:10.174Z,245
2018-06-17T05:45:35.685Z,245
2018-06-17T05:46:01.161Z,250
2018-06-17T05:46:26.624Z,250
2018-06-17T05:46:52.094Z,250
2018-06-17T05:47:17.592Z,250
2018-06-17T05:47:43.101Z,255
2018-06-17T05:48:08.621Z,255
2018-06-17T05:48:34.070Z,255
2018-06-17T05:48:59.584Z,260
2018-06-17T05:49:25.113Z,260
2018-06-17T05:49:50.679Z,260
2018-06-17T05:50:16.180Z,265
2018-06-17T05:50:41.649Z,265
2018-06-17T05:51:07.121Z,270
2018-06-17T05:51:32.619Z,275
2018-06-17T05:51:58.114Z,275
2018-06-17T05:52:23.610Z,280
2018-06-17T05:52:49.089Z,280
2018-06-17T05:53:14.587Z,280
2018-06-17T05:53:40.096Z,275
2018-06-17T05:54:05.582Z,275
2018-06-17T05:54:31.095Z,280
2018-06-17T05:54:56.581Z,280
2018-06-17T05:56:25.698Z,290
2018-06-17T05:56:51.225Z,280
2018-06-17T05:57:16.704Z,275
2018-06-17T05:57:42.221Z,275
2018-06-17T05:58:07.758Z,270
2018-06-17T05:58:33.225Z,280
2018-06-17T05:58:58.719Z,300
2018-06-17T05:59:24.232Z,320
2018-06-17T05:59:49.768Z,330
2018-06-17T06:00:15.308Z,345
2018-06-17T06:00:40.801Z,355
2018-06-17T06:01:06.266Z,370
2018-06-17T06:01:31.760Z,385
2018-06-17T06:01:57.253Z,395
2018-06-17T06:02:22.744Z,395
2018-06-17T06:02:48.239Z,405
2018-06-17T06:03:13.737Z,410
2018-06-17T06:03:39.285Z,420
2018-06-17T06:04:04.887Z,430
2018-06-17T06:04:30.335Z,445
2018-06-17T06:04:55.816Z,460
2018-06-17T06:05:21.296Z,470
2018-06-17T06:05:46.799Z,480
2018-06-17T06:06:12.316Z,465
2018-06-17T06:06:37.825Z,390
2018-06-17T06:07:03.379Z,380
2018-06-17T06:07:28.917Z,400
2018-06-17T06:07:54.387Z,395
2018-06-17T06:08:19.894Z,355
2018-06-17T06:08:45.429Z,345
2018-06-17T06:09:10.931Z,495
2018-06-17T06:09:36.423Z,560
2018-06-17T06:10:01.921Z,570
2018-06-17T06:10:27.460Z,545
2018-06-17T06:10:52.935Z,540
2018-06-17T06:11:18.401Z,545
2018-06-17T06:11:43.913Z,565
2018-06-17T06:12:09.498Z,580
2018-06-17T06:12:34.904Z,600
2018-06-17T06:13:00.404Z,625
2018-06-17T06:13:25.874Z,645
2018-06-17T06:13:51.384Z,665
2018-06-17T06:14:16.913Z,655
2018-06-17T06:14:42.433Z,680
2018-06-17T06:15:07.878Z,715
2018-06-17T06:15:33.365Z,760
2018-06-17T06:15:58.868Z,740
2018-06-17T06:16:24.348Z,795
2018-06-17T06:16:49.859Z,810
2018-06-17T06:17:15.385Z,820
2018-06-17T06:17:40.880Z,780
2018-06-17T06:18:06.366Z,755
2018-06-17T06:18:31.892Z,765
2018-06-17T06:18:57.382Z,755
2018-06-17T06:19:22.875Z,760
2018-06-17T06:19:48.378Z,810
2018-06-17T06:20:13.889Z,825
2018-06-17T06:20:39.488Z,855
2018-06-17T06:21:05.014Z,870
2018-06-17T06:21:30.500Z,875
2018-06-17T06:21:56.057Z,890
2018-06-17T06:22:21.586Z,895
2018-06-17T06:22:47.073Z,920
2018-06-17T06:23:12.554Z,950
2018-06-17T06:23:38.099Z,975
2018-06-17T06:24:03.580Z,970
2018-06-17T06:24:29.097Z,970
2018-06-17T06:24:54.595Z,940
2018-06-17T06:25:20.104Z,910
2018-06-17T06:25:45.597Z,835
2018-06-17T06:26:11.099Z,835
2018-06-17T06:26:36.633Z,820
2018-06-17T06:27:02.129Z,750
2018-06-17T06:27:27.645Z,730
2018-06-17T06:27:53.174Z,750
2018-06-17T06:28:18.650Z,715
2018-06-17T06:28:44.170Z,715
2018-06-17T06:29:09.711Z,635
2018-06-17T06:29:35.138Z,525
2018-06-17T06:30:00.663Z,640
2018-06-17T06:30:26.174Z,750
2018-06-17T06:30:51.686Z,760
2018-06-17T06:31:17.185Z,750
2018-06-17T06:31:42.667Z,795
2018-06-17T06:32:08.196Z,800
2018-06-17T06:32:33.709Z,835
2018-06-17T06:32:59.204Z,885
2018-06-17T06:33:24.682Z,900
2018-06-17T06:33:50.172Z,910
2018-06-17T06:34:15.672Z,910
2018-06-17T06:34:41.155Z,920
2018-06-17T06:35:06.658Z,910
2018-06-17T06:35:32.176Z,900
2018-06-17T06:35:57.692Z,885
2018-06-17T06:36:23.213Z,885
2018-06-17T06:36:48.719Z,875
2018-06-17T06:37:14.279Z,885
2018-06-17T06:37:39.773Z,890
2018-06-17T06:38:05.272Z,870
2018-06-17T06:38:30.811Z,895
2018-06-17T06:38:56.308Z,890
2018-06-17T06:39:21.822Z,855
2018-06-17T06:40:35.648Z,835
2018-06-17T06:41:01.138Z,835
2018-06-17T06:41:26.643Z,810
2018-06-17T06:41:52.142Z,825
2018-06-17T06:42:17.633Z,825
2018-06-17T06:42:43.141Z,825
2018-06-17T06:43:08.621Z,850
2018-06-17T06:43:34.109Z,870
2018-06-17T06:43:59.592Z,885
2018-06-17T06:44:25.128Z,850
2018-06-17T06:44:50.602Z,875
2018-06-17T06:45:16.088Z,860
2018-06-17T06:45:41.607Z,865
2018-06-17T06:46:07.046Z,885
2018-06-17T06:46:32.583Z,885
2018-06-17T06:46:58.092Z,880
2018-06-17T06:47:23.581Z,745
2018-06-17T06:47:49.089Z,705
2018-06-17T06:48:14.574Z,770
2018-06-17T06:48:40.070Z,840
2018-06-17T06:50:00.045Z,970
2018-06-17T06:50:25.559Z,1010
2018-06-17T06:50:51.089Z,1025
2018-06-17T06:51:16.569Z,1035
2018-06-17T06:51:42.096Z,1000
2018-06-17T06:52:07.603Z,810
2018-06-17T06:52:33.118Z,705
2018-06-17T06:52:58.639Z,710
2018-06-17T06:53:24.152Z,820
2018-06-17T06:53:49.679Z,760
2018-06-17T06:54:15.177Z,750
2018-06-17T06:54:40.718Z,730
2018-06-17T06:55:06.179Z,745
2018-06-17T06:55:31.661Z,730
2018-06-17T06:55:57.190Z,800
2018-06-17T06:56:22.674Z,895
2018-06-17T06:56:48.168Z,935
2018-06-17T06:57:13.683Z,910
2018-06-17T06:57:39.162Z,855
2018-06-17T06:58:04.664Z,845
2018-06-17T06:58:30.154Z,820
2018-06-17T06:58:55.661Z,815
2018-06-17T06:59:21.154Z,740
2018-06-17T06:59:46.655Z,535
2018-06-17T07:00:12.124Z,615
2018-06-17T07:00:37.609Z,530
2018-06-17T07:01:03.118Z,485
2018-06-17T07:01:28.584Z,455
2018-06-17T07:01:54.118Z,425
2018-06-17T07:02:19.619Z,410
2018-06-17T07:02:45.135Z,385
2018-06-17T07:03:10.626Z,380
2018-06-17T07:03:36.174Z,380
2018-06-17T07:04:01.675Z,375
2018-06-17T07:04:27.140Z,370
2018-06-17T07:04:52.663Z,360
2018-06-17T07:05:18.157Z,360
2018-06-17T07:05:43.666Z,345
2018-06-17T07:06:09.178Z,340
2018-06-17T07:06:34.649Z,345
2018-06-17T07:07:00.143Z,345
2018-06-17T07:07:25.644Z,345
2018-06-17T07:07:51.198Z,335
2018-06-17T07:08:16.680Z,340
2018-06-17T07:08:42.200Z,340
2018-06-17T07:09:07.708Z,340
2018-06-17T07:09:33.229Z,335
2018-06-17T07:09:58.826Z,330
2018-06-17T07:10:24.267Z,335
2018-06-17T07:10:49.761Z,340
2018-06-17T07:11:15.303Z,330
2018-06-17T07:11:40.750Z,335
2018-06-17T07:12:06.237Z,340
2018-06-17T07:12:31.750Z,330
2018-06-17T07:12:57.301Z,325
2018-06-17T07:13:22.740Z,340
2018-06-17T07:13:48.244Z,340
2018-06-17T07:14:13.725Z,335
2018-06-17T07:14:39.229Z,340
2018-06-17T07:15:04.747Z,335
2018-06-17T07:15:30.222Z,335
2018-06-17T07:15:55.713Z,335
2018-06-17T07:16:21.196Z,340
2018-06-17T07:16:46.736Z,340
2018-06-17T07:17:12.214Z,335
2018-06-17T07:17:37.694Z,340
2018-06-17T07:18:03.214Z,345
2018-06-17T07:18:28.703Z,330
2018-06-17T07:18:54.220Z,320
2018-06-17T07:19:19.729Z,325
2018-06-17T07:19:45.217Z,325
2018-06-17T07:20:10.709Z,330
2018-06-17T07:20:36.187Z,330
2018-06-17T07:21:01.718Z,340
2018-06-17T07:21:27.219Z,350
2018-06-17T07:21:52.763Z,355
2018-06-17T07:22:18.253Z,365
2018-06-17T07:22:43.773Z,365
2018-06-17T07:23:57.523Z,375
2018-06-17T07:24:23.047Z,365
2018-06-17T07:24:48.555Z,350
2018-06-17T07:25:14.052Z,345
2018-06-17T07:25:39.537Z,350
2018-06-17T07:26:05.070Z,345
2018-06-17T07:26:30.587Z,355
2018-06-17T07:26:56.075Z,370
2018-06-17T07:27:21.548Z,370
2018-06-17T07:27:47.039Z,370
2018-06-17T07:28:12.503Z,380
2018-06-17T07:28:37.980Z,385
2018-06-17T07:29:03.479Z,400
2018-06-17T07:29:28.967Z,400
2018-06-17T07:29:54.468Z,400
2018-06-17T07:30:19.978Z,400
2018-06-17T07:30:45.465Z,405
2018-06-17T07:31:10.952Z,420
2018-06-17T07:31:36.472Z,410
2018-06-17T07:32:01.966Z,410
2018-06-17T07:32:27.465Z,405
2018-06-17T07:32:52.959Z,440
2018-06-17T07:33:18.445Z,440
2018-06-17T07:33:43.933Z,445
2018-06-17T07:34:09.452Z,455
2018-06-17T07:34:34.967Z,455
2018-06-17T07:35:00.450Z,470
2018-06-17T07:35:25.946Z,480
2018-06-17T07:35:51.458Z,500
2018-06-17T07:36:16.948Z,510
2018-06-17T07:36:42.448Z,505
2018-06-17T07:37:07.971Z,505
2018-06-17T07:37:33.453Z,510
2018-06-17T07:37:58.963Z,515
2018-06-17T07:38:24.464Z,530
2018-06-17T07:38:49.945Z,585
2018-06-17T07:39:15.433Z,635
2018-06-17T07:39:40.942Z,675
2018-06-17T07:40:06.456Z,755
2018-06-17T07:40:31.947Z,805
2018-06-17T07:40:57.450Z,835
2018-06-17T07:41:22.941Z,805
2018-06-17T07:41:48.434Z,795
2018-06-17T07:42:14.000Z,810
2018-06-17T07:42:39.489Z,800
2018-06-17T07:43:04.975Z,840
2018-06-17T07:43:30.505Z,880
2018-06-17T07:43:55.989Z,950
2018-06-17T07:44:21.473Z,1040
2018-06-17T07:44:46.956Z,1075
2018-06-17T07:45:12.458Z,1070
2018-06-17T07:45:37.965Z,985
2018-06-17T07:46:03.464Z,990
2018-06-17T07:46:28.950Z,905
2018-06-17T07:46:54.437Z,990
2018-06-17T07:48:08.245Z,910
2018-06-17T07:48:33.776Z,1010
2018-06-17T07:48:59.264Z,1085
2018-06-17T07:49:24.799Z,1160
2018-06-17T07:49:50.328Z,1205
2018-06-17T07:50:16.147Z,1110
2018-06-17T07:50:41.993Z,1005
2018-06-17T07:51:07.713Z,1010
2018-06-17T07:51:33.147Z,950
2018-06-17T07:51:58.734Z,1085
2018-06-17T07:52:24.200Z,1125
2018-06-17T07:52:49.715Z,1015
2018-06-17T07:53:15.210Z,940
2018-06-17T07:53:40.682Z,955
2018-06-17T07:54:06.214Z,940
2018-06-17T07:54:31.698Z,990
2018-06-17T07:54:57.327Z,1040
2018-06-17T07:55:22.814Z,1045
2018-06-17T07:55:48.422Z,990
2018-06-17T07:56:13.917Z,910
2018-06-17T07:56:39.403Z,920
2018-06-17T07:57:04.888Z,980
2018-06-17T07:57:30.370Z,1010
2018-06-17T07:57:55.872Z,1100
2018-06-17T07:58:21.350Z,1120
2018-06-17T07:58:46.873Z,1165
2018-06-17T07:59:12.341Z,1115
2018-06-17T07:59:37.876Z,1030
2018-06-17T08:00:03.454Z,1120
2018-06-17T08:00:28.945Z,1145
2018-06-17T08:00:54.509Z,1140
2018-06-17T08:01:19.937Z,1255
2018-06-17T08:01:45.456Z,1285
2018-06-17T08:02:10.945Z,1315
2018-06-17T08:02:36.431Z,1355
2018-06-17T08:03:01.887Z,1325
2018-06-17T08:03:27.502Z,1345
2018-06-17T08:03:53.285Z,1325
2018-06-17T08:05:22.362Z,1315
2018-06-17T08:05:47.872Z,1285
2018-06-17T08:06:13.401Z,1265
2018-06-17T08:06:38.882Z,1280
2018-06-17T08:07:04.377Z,920
2018-06-17T08:07:29.874Z,1185
2018-06-17T08:07:55.386Z,645
2018-06-17T08:08:20.865Z,1130
2018-06-17T08:08:46.388Z,1105
2018-06-17T08:09:11.865Z,1070
2018-06-17T08:09:37.356Z,1120
2018-06-17T08:10:02.865Z,1135
2018-06-17T08:10:28.361Z,1155
2018-06-17T08:10:53.928Z,1195
2018-06-17T08:11:19.374Z,1190
2018-06-17T08:11:44.849Z,1045
2018-06-17T08:12:10.396Z,1155
2018-06-17T08:12:35.849Z,1125
2018-06-17T08:13:01.351Z,405
2018-06-17T08:13:26.858Z,925
2018-06-17T08:13:52.360Z,380
2018-06-17T08:14:17.831Z,665
2018-06-17T08:14:43.345Z,615
2018-06-17T08:15:08.840Z,580
2018-06-17T08:15:34.331Z,540
2018-06-17T08:15:59.832Z,625
2018-06-17T08:16:25.341Z,575
2018-06-17T08:16:50.852Z,410
2018-06-17T08:17:16.348Z,415
2018-06-17T08:17:41.857Z,570
2018-06-17T08:18:07.352Z,470
2018-06-17T08:19:16.065Z,545
2018-06-17T08:19:41.580Z,525
2018-06-17T08:20:07.083Z,520
2018-06-17T08:20:32.602Z,455
2018-06-17T08:20:58.100Z,485
2018-06-17T08:21:23.616Z,465
2018-06-17T08:21:49.131Z,475
2018-06-17T08:22:14.636Z,590
2018-06-17T08:22:40.133Z,550
2018-06-17T08:23:05.607Z,530
2018-06-17T08:23:31.085Z,485
2018-06-17T08:23:56.599Z,485
2018-06-17T08:24:22.073Z,510
2018-06-17T08:24:47.542Z,475
2018-06-17T08:25:13.030Z,470
2018-06-17T08:25:38.500Z,470
2018-06-17T08:26:04.027Z,475
2018-06-17T08:26:29.489Z,505
2018-06-17T08:26:55.018Z,440
2018-06-17T08:27:20.496Z,450
2018-06-17T08:27:45.994Z,480
2018-06-17T08:28:11.486Z,470
2018-06-17T08:28:36.976Z,465
2018-06-17T08:29:02.472Z,480
2018-06-17T08:29:27.976Z,525
2018-06-17T08:29:53.478Z,550
2018-06-17T08:30:18.974Z,525
2018-06-17T08:30:44.474Z,470
2018-06-17T08:31:09.975Z,465
2018-06-17T08:31:35.494Z,450
2018-06-17T08:32:01.017Z,430
2018-06-17T08:32:26.496Z,405
2018-06-17T08:32:51.982Z,365
2018-06-17T08:33:17.507Z,350
2018-06-17T08:33:42.987Z,360
2018-06-17T08:34:08.477Z,390
2018-06-17T08:34:33.951Z,445
2018-06-17T08:34:59.439Z,460
2018-06-17T08:35:24.925Z,420
2018-06-17T08:35:50.447Z,375
2018-06-17T08:36:15.987Z,360
2018-06-17T08:36:41.484Z,370
2018-06-17T08:37:06.978Z,360
2018-06-17T08:37:32.472Z,365
2018-06-17T08:37:57.980Z,365
2018-06-17T08:39:28.098Z,410
2018-06-17T08:39:53.606Z,380
2018-06-17T08:40:19.118Z,360
2018-06-17T08:40:44.621Z,370
2018-06-17T08:41:10.107Z,375
2018-06-17T08:41:35.568Z,365
2018-06-17T08:42:01.110Z,360
2018-06-17T08:42:26.592Z,350
2018-06-17T08:42:52.103Z,340
2018-06-17T08:43:17.600Z,330
2018-06-17T08:43:43.113Z,320
2018-06-17T08:44:08.624Z,305
2018-06-17T08:44:34.122Z,295
2018-06-17T08:44:59.573Z,290
2018-06-17T08:45:25.088Z,305
2018-06-17T08:45:50.588Z,320
2018-06-17T08:46:16.077Z,320
2018-06-17T08:46:41.570Z,315
2018-06-17T08:47:07.060Z,305
2018-06-17T08:47:32.574Z,300
2018-06-17T08:47:58.072Z,300
2018-06-17T08:48:23.620Z,295
2018-06-17T08:48:49.158Z,300
2018-06-17T08:49:14.706Z,285
2018-06-17T08:49:40.168Z,255
2018-06-17T08:50:05.660Z,245
2018-06-17T08:50:31.192Z,220
2018-06-17T08:50:56.702Z,200
2018-06-17T08:51:22.228Z,190
2018-06-17T08:51:47.709Z,180
2018-06-17T08:52:13.193Z,170
2018-06-17T08:52:38.688Z,175
2018-06-17T08:53:04.180Z,190
2018-06-17T08:53:29.679Z,200
2018-06-17T08:53:55.185Z,215
2018-06-17T08:54:20.767Z,265
2018-06-17T08:54:46.188Z,335
2018-06-17T08:55:11.661Z,390
2018-06-17T08:55:37.179Z,430
2018-06-17T08:56:02.690Z,455
2018-06-17T08:56:28.187Z,445
2018-06-17T08:56:53.711Z,425
2018-06-17T08:57:19.213Z,425
2018-06-17T08:57:44.790Z,430
2018-06-17T08:58:10.300Z,410
2018-06-17T08:58:35.791Z,375
2018-06-17T08:59:01.285Z,340
2018-06-17T08:59:26.772Z,310
2018-06-17T08:59:52.293Z,290
2018-06-17T09:00:17.799Z,285
2018-06-17T09:00:43.266Z,280
2018-06-17T09:01:08.773Z,265
2018-06-17T09:02:22.594Z,290
2018-06-17T09:02:48.116Z,300
2018-06-17T09:03:13.654Z,310
2018-06-17T09:03:39.125Z,325
2018-06-17T09:04:04.591Z,330
2018-06-17T09:04:30.125Z,325
2018-06-17T09:04:55.620Z,330
2018-06-17T09:05:21.110Z,350
2018-06-17T09:05:46.619Z,390
2018-06-17T09:06:12.102Z,435
2018-06-17T09:06:37.627Z,470
2018-06-17T09:07:03.072Z,480
2018-06-17T09:07:28.577Z,480
2018-06-17T09:08:57.731Z,485
2018-06-17T09:09:23.268Z,500
2018-06-17T09:09:48.779Z,490
2018-06-17T09:10:14.288Z,455
2018-06-17T09:10:39.777Z,435
2018-06-17T09:11:05.392Z,430
2018-06-17T09:11:30.888Z,420
2018-06-17T09:11:56.393Z,420
2018-06-17T09:12:21.944Z,425
2018-06-17T09:12:47.361Z,415
2018-06-17T09:13:12.846Z,400
2018-06-17T09:13:38.314Z,390
2018-06-17T09:14:03.790Z,380
2018-06-17T09:14:29.294Z,380
2018-06-17T09:14:54.776Z,365
2018-06-17T09:15:20.282Z,365
2018-06-17T09:15:45.802Z,355
2018-06-17T09:16:11.296Z,350
2018-06-17T09:16:36.781Z,360
2018-06-17T09:17:02.286Z,360
2018-06-17T09:17:27.772Z,350
2018-06-17T09:17:53.278Z,340
2018-06-17T09:18:18.752Z,330
2018-06-17T09:18:44.239Z,315
2018-06-17T09:19:09.763Z,305
2018-06-17T09:19:35.266Z,295
2018-06-17T09:20:00.842Z,285
2018-06-17T09:20:26.230Z,280
2018-06-17T09:20:51.921Z,275
2018-06-17T09:21:17.227Z,270
2018-06-17T09:21:42.713Z,270
2018-06-17T09:22:08.203Z,275
2018-06-17T09:22:33.709Z,300
2018-06-17T09:24:02.879Z,365
2018-06-17T09:24:28.362Z,355
2018-06-17T09:24:53.867Z,345
2018-06-17T09:25:19.494Z,355
2018-06-17T09:25:44.926Z,375
2018-06-17T09:26:10.426Z,380
2018-06-17T09:26:35.923Z,365
2018-06-17T09:27:01.488Z,350
2018-06-17T09:27:26.970Z,335
2018-06-17T09:27:52.461Z,315
2018-06-17T09:28:17.929Z,295
2018-06-17T09:28:43.431Z,285
2018-06-17T09:29:08.924Z,285
2018-06-17T09:29:34.396Z,285
2018-06-17T09:29:59.927Z,280
2018-06-17T09:30:25.426Z,285
2018-06-17T09:30:50.918Z,295
2018-06-17T09:31:16.408Z,310
2018-06-17T09:31:41.906Z,315
2018-06-17T09:32:07.521Z,305
2018-06-17T09:32:32.909Z,280
2018-06-17T09:32:58.397Z,270
2018-06-17T09:33:23.934Z,280
2018-06-17T09:33:49.402Z,290
2018-06-17T09:34:14.898Z,285
2018-06-17T09:35:38.933Z,265
2018-06-17T09:36:04.426Z,265
2018-06-17T09:36:29.915Z,255
2018-06-17T09:36:55.427Z,250
2018-06-17T09:37:20.950Z,235
2018-06-17T09:37:46.431Z,220
2018-06-17T09:38:11.939Z,225
2018-06-17T09:38:37.467Z,250
2018-06-17T09:39:02.909Z,295
2018-06-17T09:39:28.410Z,350
2018-06-17T09:39:53.919Z,380
2018-06-17T09:40:19.411Z,370
2018-06-17T09:40:44.906Z,345
2018-06-17T09:41:10.415Z,325
2018-06-17T09:41:35.896Z,335
2018-06-17T09:42:01.417Z,325
2018-06-17T09:42:26.949Z,305
2018-06-17T09:43:45.889Z,300
2018-06-17T09:44:11.384Z,290
2018-06-17T09:44:36.900Z,290
2018-06-17T09:45:02.381Z,305
2018-06-17T09:45:27.878Z,315
2018-06-17T09:45:53.339Z,320
2018-06-17T09:46:18.858Z,330
2018-06-17T09:46:44.340Z,355
2018-06-17T09:47:09.861Z,380
2018-06-17T09:47:35.382Z,385
2018-06-17T09:48:00.837Z,400
2018-06-17T09:48:26.328Z,400
2018-06-17T09:48:51.823Z,400
2018-06-17T09:49:17.323Z,400
2018-06-17T09:49:42.789Z,415
2018-06-17T09:50:08.338Z,420
2018-06-17T09:50:33.813Z,420
2018-06-17T09:50:59.319Z,425
2018-06-17T09:51:24.819Z,420
2018-06-17T09:51:50.300Z,425
2018-06-17T09:52:15.779Z,425
2018-06-17T09:52:41.277Z,410
2018-06-17T09:53:06.794Z,385
2018-06-17T09:53:32.280Z,365
2018-06-17T09:54:46.122Z,315
2018-06-17T09:55:11.584Z,335
2018-06-17T09:55:37.135Z,355
2018-06-17T09:56:02.634Z,385
2018-06-17T09:56:28.145Z,415
2018-06-17T09:56:54.271Z,440
2018-06-17T09:57:19.698Z,465
2018-06-17T09:57:45.173Z,495
2018-06-17T09:58:10.675Z,510
2018-06-17T09:58:36.260Z,500
2018-06-17T09:59:01.678Z,485
2018-06-17T09:59:27.203Z,465
2018-06-17T09:59:52.703Z,450
2018-06-17T10:00:18.209Z,415
2018-06-17T10:00:43.692Z,380
2018-06-17T10:01:09.183Z,360
2018-06-17T10:01:34.700Z,350
2018-06-17T10:02:00.156Z,345
2018-06-17T10:02:25.631Z,365
2018-06-17T10:02:51.145Z,375
2018-06-17T10:03:16.688Z,390
2018-06-17T10:03:42.240Z,410
2018-06-17T10:04:07.740Z,425
2018-06-17T10:04:33.270Z,435
2018-06-17T10:04:58.762Z,420
2018-06-17T10:05:24.278Z,385
2018-06-17T10:05:49.780Z,360
2018-06-17T10:06:15.281Z,340
2018-06-17T10:06:40.803Z,325
2018-06-17T10:07:54.588Z,290
2018-06-17T10:08:20.093Z,270
2018-06-17T10:08:45.591Z,260
2018-06-17T10:09:11.067Z,275
2018-06-17T10:09:36.551Z,295
2018-06-17T10:10:02.068Z,295
2018-06-17T10:10:27.544Z,290
2018-06-17T10:10:53.078Z,280
2018-06-17T10:11:18.572Z,275
2018-06-17T10:11:44.081Z,275
2018-06-17T10:12:09.511Z,260
2018-06-17T10:12:34.997Z,235
2018-06-17T10:13:00.483Z,230
2018-06-17T10:13:26.013Z,250
2018-06-17T10:13:51.519Z,280
2018-06-17T10:14:17.035Z,295
2018-06-17T10:14:42.579Z,285
2018-06-17T10:15:08.083Z,275
2018-06-17T10:15:33.614Z,290
2018-06-17T10:15:59.138Z,310
2018-06-17T10:16:24.616Z,335
2018-06-17T10:16:50.106Z,355
2018-06-17T10:17:15.631Z,380